LKPR/PRG METAR and TAF weather

Enter ICAO airport designator
Station Type Date Time Source
LKPR METAR 2020/08/06 01:00 UTC NOAA

LKPR 060100Z 14001KT CAVOK 14/10 Q1021 NOSIG


Station Type Date Time Source
LKPR Decoded METAR 2020/08/06 01:00 UTC NOAA

Praha / Ruzyne, Czech Republic (LKPR) 50-06N 014-15E 365M
Aug 05, 2020 - 09:00 PM EDT / 2020.08.06 0100 UTC
Wind: from the SE (140 degrees) at 1 MPH (1 KT):0
Visibility: greater than 7 mile(s):0
Temperature: 57 F (14 C)
Dew Point: 50 F (10 C)
Relative Humidity: 76%
Pressure (altimeter): 30.15 in. Hg (1021 hPa)
ob: LKPR 060100Z 14001KT CAVOK 14/10 Q1021 NOSIG
cycle: 1

Station Type Date Time Source
LKPR TAF 2020/08/05 18:06 UTC NOAA

TAF LKPR 051700Z 0518/0700 04006KT CAVOK
TEMPO 0521/0606 13006KT

Example: see airport list